createdAt,value
2022-09-12T00:00:01.407Z,0.00
2022-09-12T00:01:01.869Z,0.00
2022-09-12T00:02:01.705Z,0.00
2022-09-12T00:03:01.647Z,0.00
2022-09-12T00:04:01.887Z,0.00
2022-09-12T00:05:01.587Z,0.00
2022-09-12T00:06:01.755Z,0.00
2022-09-12T00:07:01.577Z,0.00
2022-09-12T00:08:01.628Z,0.00
2022-09-12T00:09:01.651Z,0.00
2022-09-12T00:10:02.194Z,0.00
2022-09-12T00:11:01.746Z,0.00
2022-09-12T00:12:02.105Z,0.00
2022-09-12T00:13:01.412Z,0.00
2022-09-12T00:14:01.415Z,0.00
2022-09-12T00:15:01.671Z,0.00
2022-09-12T00:16:01.701Z,0.00
2022-09-12T00:17:01.571Z,0.00
2022-09-12T00:18:01.228Z,0.00
2022-09-12T00:19:01.398Z,0.00
2022-09-12T00:20:01.611Z,0.00
2022-09-12T00:21:01.617Z,0.00
2022-09-12T00:22:01.432Z,0.00
2022-09-12T00:23:01.075Z,0.00
2022-09-12T00:24:01.112Z,0.00
2022-09-12T00:25:01.119Z,0.00
2022-09-12T00:26:01.049Z,0.00
2022-09-12T00:27:01.043Z,0.00
2022-09-12T00:28:01.054Z,0.00
2022-09-12T00:29:01.089Z,0.00
2022-09-12T00:30:01.063Z,0.00
2022-09-12T00:31:01.000Z,0.00
2022-09-12T00:32:01.034Z,0.00
2022-09-12T00:33:01.882Z,0.00
2022-09-12T00:34:01.159Z,0.00
2022-09-12T00:35:01.062Z,0.00
2022-09-12T00:36:00.937Z,0.00
2022-09-12T00:37:00.966Z,0.00
2022-09-12T00:38:00.929Z,0.00
2022-09-12T00:39:00.983Z,0.00
2022-09-12T00:40:01.021Z,0.00
2022-09-12T00:41:00.953Z,0.00
2022-09-12T00:42:00.888Z,0.00
2022-09-12T00:43:00.862Z,0.00
2022-09-12T00:44:00.879Z,0.00
2022-09-12T00:45:02.421Z,0.00
2022-09-12T00:46:00.933Z,0.00
2022-09-12T00:47:00.819Z,0.00
2022-09-12T00:48:00.821Z,0.00
2022-09-12T00:49:00.836Z,0.00
2022-09-12T00:50:00.974Z,0.00
2022-09-12T00:51:00.766Z,0.00
2022-09-12T00:52:00.805Z,0.00
2022-09-12T00:53:00.773Z,0.00
2022-09-12T00:54:00.790Z,0.00
2022-09-12T00:55:00.769Z,0.00
2022-09-12T00:56:00.798Z,0.00
2022-09-12T00:57:00.806Z,0.00
2022-09-12T00:58:00.820Z,0.00
2022-09-12T00:59:00.685Z,0.00
2022-09-12T01:00:00.692Z,0.00
2022-09-12T01:01:00.918Z,0.00
2022-09-12T01:02:00.816Z,0.00
2022-09-12T01:03:00.650Z,0.00
2022-09-12T01:04:00.679Z,0.00
2022-09-12T01:05:00.615Z,0.00
2022-09-12T01:06:00.623Z,0.00
2022-09-12T01:07:00.582Z,0.00
2022-09-12T01:08:00.591Z,0.00
2022-09-12T01:09:00.619Z,0.00
2022-09-12T01:10:00.714Z,0.00
2022-09-12T01:11:00.560Z,0.00
2022-09-12T01:12:00.645Z,0.00
2022-09-12T01:13:00.534Z,0.00
2022-09-12T01:14:00.595Z,0.00
2022-09-12T01:15:00.496Z,0.00
2022-09-12T01:16:00.529Z,0.00
2022-09-12T01:17:00.530Z,0.00
2022-09-12T01:18:00.493Z,0.00
2022-09-12T01:19:01.386Z,0.00
2022-09-12T01:20:00.469Z,0.00
2022-09-12T01:21:00.459Z,0.00
2022-09-12T01:22:00.475Z,0.00
2022-09-12T01:23:00.476Z,0.00
2022-09-12T01:24:00.446Z,0.00
2022-09-12T01:25:00.377Z,0.00
2022-09-12T01:26:00.424Z,0.00
2022-09-12T01:27:00.392Z,0.00
2022-09-12T01:28:00.447Z,0.00
2022-09-12T01:29:00.414Z,0.00
2022-09-12T01:30:00.373Z,0.00
2022-09-12T01:31:00.469Z,0.00
2022-09-12T01:32:00.485Z,0.00
2022-09-12T01:33:00.386Z,0.00
2022-09-12T01:34:00.606Z,0.00
2022-09-12T01:35:01.130Z,0.00
2022-09-12T01:36:00.538Z,0.00
2022-09-12T01:37:00.731Z,0.00
2022-09-12T01:38:00.327Z,0.00
2022-09-12T01:39:00.411Z,0.00
2022-09-12T01:40:00.702Z,0.00
2022-09-12T01:41:00.286Z,0.00
2022-09-12T01:42:00.391Z,0.00
2022-09-12T01:43:01.020Z,0.00
2022-09-12T01:44:00.471Z,0.00
2022-09-12T01:45:00.293Z,0.00
2022-09-12T01:46:00.269Z,0.00
2022-09-12T01:47:00.459Z,0.00
2022-09-12T01:48:00.410Z,0.00
2022-09-12T01:49:00.155Z,0.00
2022-09-12T01:50:00.120Z,0.00
2022-09-12T01:51:00.323Z,0.00
2022-09-12T01:52:00.238Z,0.00
2022-09-12T01:53:01.017Z,0.00
2022-09-12T01:54:00.412Z,0.00
2022-09-12T01:55:00.124Z,0.00
2022-09-12T01:56:00.024Z,0.00
2022-09-12T01:57:00.026Z,0.00
2022-09-12T01:58:00.054Z,0.00
2022-09-12T01:59:00.016Z,0.00
2022-09-12T02:00:00.001Z,0.00
2022-09-12T02:01:00.024Z,0.00
2022-09-12T02:02:00.028Z,0.00
2022-09-12T02:02:59.949Z,0.00
2022-09-12T02:03:59.970Z,0.00
2022-09-12T02:04:59.966Z,0.00
2022-09-12T02:05:59.923Z,0.00
2022-09-12T02:06:59.905Z,0.00
2022-09-12T02:07:59.896Z,0.00
2022-09-12T02:08:59.918Z,0.00
2022-09-12T02:09:59.941Z,0.00
2022-09-12T02:10:59.865Z,0.00
2022-09-12T02:11:59.905Z,0.00
2022-09-12T02:12:59.891Z,0.00
2022-09-12T02:13:59.843Z,0.00
2022-09-12T02:14:59.878Z,0.00
2022-09-12T02:15:59.912Z,0.00
2022-09-12T02:16:59.836Z,0.00
2022-09-12T02:17:59.844Z,0.00
2022-09-12T02:18:59.810Z,0.00
2022-09-12T02:19:59.763Z,0.00
2022-09-12T02:20:59.766Z,0.00
2022-09-12T02:21:59.799Z,0.00
2022-09-12T02:22:59.721Z,0.00
2022-09-12T02:23:59.706Z,0.00
2022-09-12T02:24:59.722Z,0.00
2022-09-12T02:25:59.714Z,0.00
2022-09-12T02:26:59.710Z,0.00
2022-09-12T02:27:59.753Z,0.00
2022-09-12T02:28:59.663Z,0.00
2022-09-12T02:29:59.662Z,0.00
2022-09-12T02:30:59.757Z,0.00
2022-09-12T02:31:59.630Z,0.00
2022-09-12T02:32:59.618Z,0.00
2022-09-12T02:33:59.650Z,0.00
2022-09-12T02:34:59.634Z,0.00
2022-09-12T02:35:59.590Z,0.00
2022-09-12T02:36:59.668Z,0.00
2022-09-12T02:37:59.574Z,0.00
2022-09-12T02:38:59.556Z,0.00
2022-09-12T02:39:59.582Z,0.00
2022-09-12T02:40:59.529Z,0.00
2022-09-12T02:41:59.530Z,0.00
2022-09-12T02:42:59.525Z,0.00
2022-09-12T02:43:59.490Z,0.00
2022-09-12T02:44:59.481Z,0.00
2022-09-12T02:45:59.535Z,0.00
2022-09-12T02:46:59.454Z,0.00
2022-09-12T02:47:59.444Z,0.00
2022-09-12T02:48:59.447Z,0.00
2022-09-12T02:49:59.494Z,0.00
2022-09-12T02:50:59.471Z,0.00
2022-09-12T02:51:59.448Z,0.00
2022-09-12T02:52:59.629Z,0.00
2022-09-12T02:53:59.859Z,0.00
2022-09-12T02:54:59.868Z,0.00
2022-09-12T02:55:59.698Z,0.00
2022-09-12T02:56:59.820Z,0.00
2022-09-12T02:57:59.892Z,0.00
2022-09-12T02:58:59.803Z,0.00
2022-09-12T02:59:59.765Z,0.00
2022-09-12T03:00:59.831Z,0.00
2022-09-12T03:01:59.963Z,0.00
2022-09-12T03:02:59.803Z,0.00
2022-09-12T03:03:59.803Z,0.00
2022-09-12T03:04:59.923Z,0.00
2022-09-12T03:05:59.712Z,0.00
2022-09-12T03:06:59.709Z,0.00
2022-09-12T03:07:59.735Z,0.00
2022-09-12T03:08:59.653Z,0.00
2022-09-12T03:09:59.940Z,0.00
2022-09-12T03:10:59.696Z,0.00
2022-09-12T03:11:59.574Z,0.00
2022-09-12T03:12:59.734Z,0.00
2022-09-12T03:13:59.480Z,0.00
2022-09-12T03:14:59.625Z,0.00
2022-09-12T03:15:59.160Z,0.00
2022-09-12T03:16:59.704Z,0.00
2022-09-12T03:17:59.515Z,0.00
2022-09-12T03:18:59.558Z,0.00
2022-09-12T03:19:59.526Z,0.00
2022-09-12T03:20:59.621Z,0.00
2022-09-12T03:21:59.155Z,0.00
2022-09-12T03:22:59.053Z,0.00
2022-09-12T03:23:59.066Z,0.00
2022-09-12T03:24:59.060Z,0.00
2022-09-12T03:25:59.038Z,0.00
2022-09-12T03:26:59.875Z,0.00
2022-09-12T03:27:59.046Z,0.00
2022-09-12T03:28:59.906Z,0.00
2022-09-12T03:29:59.045Z,0.00
2022-09-12T03:30:59.038Z,0.00
2022-09-12T03:31:58.975Z,0.00
2022-09-12T03:32:58.956Z,0.00
2022-09-12T03:33:59.008Z,0.00
2022-09-12T03:34:59.903Z,0.00
2022-09-12T03:35:58.965Z,0.00
2022-09-12T03:36:58.923Z,0.00
2022-09-12T03:37:58.901Z,0.00
2022-09-12T03:38:58.944Z,0.00
2022-09-12T03:39:59.052Z,0.00
2022-09-12T03:40:58.892Z,0.00
2022-09-12T03:41:58.857Z,0.00
2022-09-12T03:42:58.833Z,0.00
2022-09-12T03:43:58.849Z,0.00
2022-09-12T03:44:58.818Z,0.00
2022-09-12T03:45:58.938Z,0.00
2022-09-12T03:46:58.885Z,0.00
2022-09-12T03:47:58.882Z,0.00
2022-09-12T03:48:58.802Z,0.00
2022-09-12T03:49:58.869Z,0.00
2022-09-12T03:50:58.736Z,0.00
2022-09-12T03:51:58.802Z,0.00
2022-09-12T03:52:58.835Z,0.00
2022-09-12T03:53:58.849Z,0.00
2022-09-12T03:54:58.723Z,0.00
2022-09-12T03:55:58.695Z,0.00
2022-09-12T03:56:58.708Z,0.00
2022-09-12T03:57:58.774Z,0.00
2022-09-12T03:58:58.741Z,0.00
2022-09-12T03:59:58.639Z,0.00
2022-09-12T04:00:59.413Z,0.00
2022-09-12T04:01:58.679Z,0.00
2022-09-12T04:02:58.665Z,0.00
2022-09-12T04:03:58.732Z,0.00
2022-09-12T04:04:58.619Z,0.00
2022-09-12T04:06:01.550Z,0.00
2022-09-12T04:06:58.615Z,0.00
2022-09-12T04:07:58.652Z,0.00
2022-09-12T04:08:58.624Z,0.00
2022-09-12T04:09:58.582Z,0.00
2022-09-12T04:10:58.626Z,0.00
2022-09-12T04:11:58.572Z,0.00
2022-09-12T04:12:58.612Z,0.00
2022-09-12T04:13:59.379Z,0.00
2022-09-12T04:14:58.462Z,0.00
2022-09-12T04:15:58.521Z,0.00
2022-09-12T04:16:58.468Z,0.00
2022-09-12T04:18:02.448Z,0.00
2022-09-12T04:18:58.444Z,0.00
2022-09-12T04:19:58.421Z,0.00
2022-09-12T04:20:58.394Z,0.00
2022-09-12T04:21:58.429Z,0.00
2022-09-12T04:22:58.484Z,0.00
2022-09-12T04:23:58.446Z,0.00
2022-09-12T04:24:58.511Z,0.00
2022-09-12T04:25:58.364Z,0.00
2022-09-12T04:26:58.418Z,0.00
2022-09-12T04:27:58.449Z,0.00
2022-09-12T04:28:58.397Z,0.00
2022-09-12T04:29:58.359Z,0.00
2022-09-12T04:30:58.343Z,0.00
2022-09-12T04:31:58.354Z,0.00
2022-09-12T04:32:58.383Z,0.00
2022-09-12T04:33:58.343Z,0.00
2022-09-12T04:34:58.283Z,0.00
2022-09-12T04:35:58.247Z,0.00
2022-09-12T04:36:58.257Z,0.00
2022-09-12T04:37:58.260Z,0.00
2022-09-12T04:38:58.259Z,0.00
2022-09-12T04:39:58.347Z,0.00
2022-09-12T04:40:58.264Z,0.00
2022-09-12T04:41:58.333Z,0.00
2022-09-12T04:42:58.157Z,0.00
2022-09-12T04:43:58.142Z,0.00
2022-09-12T04:44:58.136Z,0.00
2022-09-12T04:45:58.213Z,0.00
2022-09-12T04:46:58.104Z,5.62
2022-09-12T04:47:58.086Z,5.62
2022-09-12T04:48:58.079Z,5.62
2022-09-12T04:49:58.107Z,5.62
2022-09-12T04:50:58.049Z,5.62
2022-09-12T04:51:58.147Z,5.62
2022-09-12T04:52:58.041Z,5.62
2022-09-12T04:53:58.060Z,5.62
2022-09-12T04:54:58.072Z,11.25
2022-09-12T04:55:58.046Z,11.25
2022-09-12T04:56:58.041Z,11.25
2022-09-12T04:57:58.092Z,11.25
2022-09-12T04:58:57.957Z,11.25
2022-09-12T04:59:57.976Z,16.88
2022-09-12T05:00:57.999Z,16.88
2022-09-12T05:01:59.473Z,16.88
2022-09-12T05:02:57.970Z,16.88
2022-09-12T05:03:58.009Z,22.50
2022-09-12T05:04:57.903Z,22.50
2022-09-12T05:05:57.893Z,22.50
2022-09-12T05:06:57.963Z,22.50
2022-09-12T05:07:57.928Z,28.12
2022-09-12T05:08:57.869Z,28.12
2022-09-12T05:09:57.927Z,28.12
2022-09-12T05:10:57.881Z,33.75
2022-09-12T05:12:05.798Z,33.75
2022-09-12T05:12:57.814Z,33.75
2022-09-12T05:13:58.717Z,33.75
2022-09-12T05:14:57.805Z,39.38
2022-09-12T05:15:57.827Z,39.38
2022-09-12T05:16:57.857Z,45.00
2022-09-12T05:17:57.786Z,45.00
2022-09-12T05:18:57.836Z,45.00
2022-09-12T05:19:57.786Z,50.62
2022-09-12T05:20:57.746Z,50.62
2022-09-12T05:21:57.817Z,56.25
2022-09-12T05:22:57.712Z,56.25
2022-09-12T05:23:57.820Z,61.88
2022-09-12T05:24:57.791Z,61.88
2022-09-12T05:25:57.860Z,61.88
2022-09-12T05:26:57.961Z,67.50
2022-09-12T05:27:57.785Z,67.50
2022-09-12T05:29:04.422Z,73.12
2022-09-12T05:30:03.629Z,73.12
2022-09-12T05:31:03.680Z,78.75
2022-09-12T05:31:57.607Z,78.75
2022-09-12T05:32:57.569Z,78.75
2022-09-12T05:33:57.722Z,84.38
2022-09-12T05:34:57.930Z,84.38
2022-09-12T05:35:57.921Z,90.00
2022-09-12T05:36:57.566Z,90.00
2022-09-12T05:37:57.570Z,90.00
2022-09-12T05:38:57.515Z,95.62
2022-09-12T05:39:57.668Z,95.62
2022-09-12T05:40:57.501Z,106.88
2022-09-12T05:41:57.599Z,101.25
2022-09-12T05:42:57.489Z,106.88
2022-09-12T05:43:57.472Z,106.88
2022-09-12T05:44:57.442Z,112.50
2022-09-12T05:45:57.549Z,112.50
2022-09-12T05:46:57.484Z,118.12
2022-09-12T05:47:57.416Z,123.75
2022-09-12T05:48:57.386Z,123.75
2022-09-12T05:49:57.451Z,129.38
2022-09-12T05:50:57.391Z,135.00
2022-09-12T05:51:57.484Z,140.62
2022-09-12T05:52:57.352Z,146.25
2022-09-12T05:53:57.358Z,151.88
2022-09-12T05:54:57.363Z,157.50
2022-09-12T05:55:57.371Z,163.12
2022-09-12T05:56:57.383Z,163.12
2022-09-12T05:57:57.402Z,168.75
2022-09-12T05:58:57.288Z,174.38
2022-09-12T05:59:57.331Z,180.00
2022-09-12T06:00:57.266Z,191.25
2022-09-12T06:01:57.369Z,196.88
2022-09-12T06:02:58.265Z,202.50
2022-09-12T06:03:57.265Z,213.75
2022-09-12T06:04:57.203Z,219.38
2022-09-12T06:05:57.235Z,225.00
2022-09-12T06:06:57.309Z,230.62
2022-09-12T06:07:57.245Z,236.25
2022-09-12T06:08:57.173Z,241.88
2022-09-12T06:09:57.209Z,247.50
2022-09-12T06:11:00.396Z,253.12
2022-09-12T06:11:57.256Z,253.12
2022-09-12T06:12:57.187Z,253.12
2022-09-12T06:13:57.177Z,253.12
2022-09-12T06:14:57.243Z,253.12
2022-09-12T06:15:57.202Z,253.12
2022-09-12T06:16:57.162Z,253.12
2022-09-12T06:17:57.247Z,247.50
2022-09-12T06:18:57.100Z,247.50
2022-09-12T06:19:57.052Z,241.88
2022-09-12T06:20:57.064Z,241.88
2022-09-12T06:21:57.108Z,236.25
2022-09-12T06:22:57.066Z,236.25
2022-09-12T06:23:57.001Z,236.25
2022-09-12T06:24:58.052Z,236.25
2022-09-12T06:25:56.997Z,236.25
2022-09-12T06:26:56.963Z,230.62
2022-09-12T06:27:57.039Z,230.62
2022-09-12T06:28:56.946Z,230.62
2022-09-12T06:29:56.949Z,230.62
2022-09-12T06:30:57.016Z,230.62
2022-09-12T06:31:56.911Z,230.62
2022-09-12T06:32:57.950Z,230.62
2022-09-12T06:33:56.987Z,236.25
2022-09-12T06:34:56.953Z,236.25
2022-09-12T06:35:56.867Z,236.25
2022-09-12T06:36:56.918Z,236.25
2022-09-12T06:37:56.914Z,236.25
2022-09-12T06:38:56.880Z,241.88
2022-09-12T06:39:56.972Z,241.88
2022-09-12T06:40:56.825Z,241.88
2022-09-12T06:41:56.842Z,241.88
2022-09-12T06:42:56.788Z,241.88
2022-09-12T06:43:58.453Z,241.88
2022-09-12T06:44:56.806Z,241.88
2022-09-12T06:45:56.960Z,241.88
2022-09-12T06:46:56.747Z,241.88
2022-09-12T06:47:56.875Z,241.88
2022-09-12T06:48:56.781Z,241.88
2022-09-12T06:49:56.760Z,247.50
2022-09-12T06:50:56.731Z,247.50
2022-09-12T06:51:56.768Z,247.50
2022-09-12T06:52:56.727Z,247.50
2022-09-12T06:53:56.693Z,247.50
2022-09-12T06:54:56.719Z,247.50
2022-09-12T06:55:56.712Z,253.12
2022-09-12T06:56:56.664Z,253.12
2022-09-12T06:57:56.728Z,258.75
2022-09-12T06:58:56.815Z,258.75
2022-09-12T06:59:56.999Z,264.38
2022-09-12T07:00:59.079Z,270.00
2022-09-12T07:01:56.753Z,270.00
2022-09-12T07:02:56.745Z,270.00
2022-09-12T07:03:56.969Z,275.62
2022-09-12T07:04:56.641Z,275.62
2022-09-12T07:05:56.657Z,281.25
2022-09-12T07:06:56.817Z,281.25
2022-09-12T07:07:57.445Z,286.88
2022-09-12T07:08:56.651Z,286.88
2022-09-12T07:09:56.873Z,292.50
2022-09-12T07:10:56.548Z,292.50
2022-09-12T07:11:56.682Z,298.12
2022-09-12T07:12:56.483Z,303.75
2022-09-12T07:13:56.756Z,303.75
2022-09-12T07:14:56.609Z,309.38
2022-09-12T07:15:56.473Z,315.00
2022-09-12T07:16:56.601Z,315.00
2022-09-12T07:17:56.574Z,320.62
2022-09-12T07:18:56.604Z,320.62
2022-09-12T07:19:56.533Z,326.25
2022-09-12T07:20:56.730Z,326.25
2022-09-12T07:21:58.767Z,326.25
2022-09-12T07:22:56.642Z,331.88
2022-09-12T07:23:56.578Z,331.88
2022-09-12T07:24:56.514Z,331.88
2022-09-12T07:25:56.503Z,337.50
2022-09-12T07:26:56.801Z,337.50
2022-09-12T07:27:56.601Z,343.12
2022-09-12T07:29:08.243Z,354.38
2022-09-12T07:29:56.829Z,360.00
2022-09-12T07:30:56.347Z,360.00
2022-09-12T07:31:56.533Z,365.62
2022-09-12T07:32:56.550Z,371.25
2022-09-12T07:33:56.637Z,376.88
2022-09-12T07:34:56.480Z,382.50
2022-09-12T07:35:56.219Z,388.12
2022-09-12T07:36:56.508Z,393.75
2022-09-12T07:37:56.576Z,399.38
2022-09-12T07:38:57.516Z,405.00
2022-09-12T07:39:56.549Z,410.62
2022-09-12T07:40:56.364Z,416.25
2022-09-12T07:41:56.231Z,421.88
2022-09-12T07:42:56.412Z,421.88
2022-09-12T07:43:56.180Z,427.50
2022-09-12T07:44:56.418Z,433.12
2022-09-12T07:45:56.391Z,433.12
2022-09-12T07:46:56.185Z,438.75
2022-09-12T07:47:56.177Z,444.38
2022-09-12T07:48:56.322Z,444.38
2022-09-12T07:49:56.316Z,444.38
2022-09-12T07:50:56.421Z,450.00
2022-09-12T07:51:56.259Z,450.00
2022-09-12T07:52:56.277Z,450.00
2022-09-12T07:53:56.162Z,450.00
2022-09-12T07:54:56.116Z,444.38
2022-09-12T07:55:56.028Z,444.38
2022-09-12T07:56:56.008Z,450.00
2022-09-12T07:57:56.066Z,444.38
2022-09-12T07:58:56.110Z,444.38
2022-09-12T07:59:56.024Z,444.38
2022-09-12T08:00:56.087Z,444.38
2022-09-12T08:01:55.939Z,450.00
2022-09-12T08:02:55.944Z,450.00
2022-09-12T08:03:56.269Z,450.00
2022-09-12T08:04:56.071Z,444.38
2022-09-12T08:05:56.071Z,450.00
2022-09-12T08:06:56.109Z,450.00
2022-09-12T08:07:57.763Z,450.00
2022-09-12T08:08:55.976Z,455.62
2022-09-12T08:09:56.021Z,461.25
2022-09-12T08:10:56.597Z,461.25
2022-09-12T08:11:56.013Z,461.25
2022-09-12T08:12:55.900Z,461.25
2022-09-12T08:13:56.327Z,455.62
2022-09-12T08:14:55.962Z,455.62
2022-09-12T08:15:56.189Z,455.62
2022-09-12T08:16:55.935Z,455.62
2022-09-12T08:17:55.952Z,455.62
2022-09-12T08:18:55.806Z,455.62
2022-09-12T08:19:55.905Z,455.62
2022-09-12T08:20:55.864Z,455.62
2022-09-12T08:21:56.635Z,450.00
2022-09-12T08:22:55.713Z,450.00
2022-09-12T08:23:56.068Z,444.38
2022-09-12T08:24:55.842Z,444.38
2022-09-12T08:25:55.919Z,444.38
2022-09-12T08:26:55.829Z,450.00
2022-09-12T08:27:55.946Z,455.62
2022-09-12T08:28:55.856Z,461.25
2022-09-12T08:29:55.864Z,461.25
2022-09-12T08:30:56.045Z,466.88
2022-09-12T08:31:57.384Z,466.88
2022-09-12T08:32:55.712Z,461.25
2022-09-12T08:33:55.707Z,455.62
2022-09-12T08:34:55.792Z,444.38
2022-09-12T08:35:55.760Z,433.12
2022-09-12T08:36:55.670Z,421.88
2022-09-12T08:37:55.774Z,410.62
2022-09-12T08:38:59.345Z,399.38
2022-09-12T08:39:56.387Z,393.75
2022-09-12T08:40:55.595Z,388.12
2022-09-12T08:41:55.525Z,388.12
2022-09-12T08:42:55.651Z,388.12
2022-09-12T08:43:56.956Z,393.75
2022-09-12T08:44:56.425Z,399.38
2022-09-12T08:45:55.727Z,399.38
2022-09-12T08:46:55.505Z,405.00
2022-09-12T08:47:55.631Z,405.00
2022-09-12T08:48:55.753Z,405.00
2022-09-12T08:49:55.664Z,405.00
2022-09-12T08:50:55.582Z,399.38
2022-09-12T08:51:55.854Z,393.75
2022-09-12T08:52:55.618Z,388.12
2022-09-12T08:53:55.489Z,376.88
2022-09-12T08:54:55.499Z,365.62
2022-09-12T08:55:55.590Z,360.00
2022-09-12T08:56:55.667Z,348.75
2022-09-12T08:57:55.608Z,337.50
2022-09-12T08:58:55.445Z,337.50
2022-09-12T08:59:55.552Z,337.50
2022-09-12T09:00:55.486Z,348.75
2022-09-12T09:01:55.532Z,365.62
2022-09-12T09:02:55.507Z,376.88
2022-09-12T09:03:55.436Z,399.38
2022-09-12T09:04:55.380Z,421.88
2022-09-12T09:05:55.366Z,438.75
2022-09-12T09:06:57.085Z,455.62
2022-09-12T09:07:55.490Z,455.62
2022-09-12T09:08:55.239Z,450.00
2022-09-12T09:09:55.331Z,444.38
2022-09-12T09:10:55.400Z,438.75
2022-09-12T09:11:55.265Z,438.75
2022-09-12T09:12:55.264Z,433.12
2022-09-12T09:13:55.338Z,433.12
2022-09-12T09:14:55.242Z,444.38
2022-09-12T09:15:55.479Z,455.62
2022-09-12T09:16:55.411Z,466.88
2022-09-12T09:17:55.159Z,483.75
2022-09-12T09:18:55.326Z,511.88
2022-09-12T09:19:55.292Z,540.00
2022-09-12T09:20:55.068Z,551.25
2022-09-12T09:21:55.284Z,556.88
2022-09-12T09:22:55.182Z,579.38
2022-09-12T09:23:55.354Z,596.25
2022-09-12T09:24:55.231Z,607.50
2022-09-12T09:25:55.085Z,613.12
2022-09-12T09:26:55.964Z,624.38
2022-09-12T09:27:55.239Z,635.62
2022-09-12T09:28:55.086Z,630.00
2022-09-12T09:29:55.166Z,624.38
2022-09-12T09:30:55.315Z,635.62
2022-09-12T09:31:55.312Z,652.50
2022-09-12T09:32:55.212Z,669.38
2022-09-12T09:33:55.792Z,675.00
2022-09-12T09:34:55.042Z,675.00
2022-09-12T09:35:54.927Z,680.62
2022-09-12T09:36:55.034Z,680.62
2022-09-12T09:37:58.599Z,669.38
2022-09-12T09:38:55.096Z,658.12
2022-09-12T09:39:55.273Z,658.12
2022-09-12T09:40:55.096Z,669.38
2022-09-12T09:41:55.235Z,680.62
2022-09-12T09:42:55.042Z,686.25
2022-09-12T09:43:54.862Z,691.88
2022-09-12T09:44:54.975Z,686.25
2022-09-12T09:45:55.011Z,675.00
2022-09-12T09:46:54.803Z,675.00
2022-09-12T09:47:54.770Z,675.00
2022-09-12T09:48:54.717Z,680.62
2022-09-12T09:49:54.892Z,680.62
2022-09-12T09:50:56.556Z,680.62
2022-09-12T09:51:57.671Z,680.62
2022-09-12T09:52:54.855Z,691.88
2022-09-12T09:53:54.699Z,708.75
2022-09-12T09:54:54.671Z,720.00
2022-09-12T09:55:54.761Z,736.88
2022-09-12T09:56:54.775Z,753.75
2022-09-12T09:57:54.816Z,748.12
2022-09-12T09:58:54.741Z,736.88
2022-09-12T09:59:54.849Z,731.25
2022-09-12T10:00:56.718Z,720.00
2022-09-12T10:01:54.775Z,703.12
2022-09-12T10:02:54.837Z,691.88
2022-09-12T10:03:54.658Z,675.00
2022-09-12T10:04:54.647Z,658.12
2022-09-12T10:05:54.712Z,658.12
2022-09-12T10:06:54.588Z,669.38
2022-09-12T10:07:54.704Z,680.62
2022-09-12T10:08:54.694Z,691.88
2022-09-12T10:09:54.878Z,708.75
2022-09-12T10:10:54.487Z,725.62
2022-09-12T10:11:54.783Z,725.62
2022-09-12T10:12:54.548Z,714.38
2022-09-12T10:13:54.506Z,697.50
2022-09-12T10:14:54.584Z,686.25
2022-09-12T10:15:54.874Z,669.38
2022-09-12T10:16:54.790Z,646.88
2022-09-12T10:17:54.686Z,630.00
2022-09-12T10:18:54.455Z,618.75
2022-09-12T10:20:10.904Z,635.62
2022-09-12T10:20:54.679Z,630.00
2022-09-12T10:21:54.638Z,630.00
2022-09-12T10:22:54.714Z,630.00
2022-09-12T10:23:54.701Z,607.50
2022-09-12T10:24:54.765Z,585.00
2022-09-12T10:25:54.518Z,562.50
2022-09-12T10:26:56.812Z,573.75
2022-09-12T10:27:54.850Z,596.25
2022-09-12T10:28:54.759Z,607.50
2022-09-12T10:29:54.591Z,646.88
2022-09-12T10:30:54.797Z,675.00
2022-09-12T10:31:54.594Z,697.50
2022-09-12T10:32:54.655Z,714.38
2022-09-12T10:33:54.607Z,714.38
2022-09-12T10:34:54.331Z,708.75
2022-09-12T10:35:54.347Z,697.50
2022-09-12T10:36:54.261Z,669.38
2022-09-12T10:37:54.323Z,663.75
2022-09-12T10:38:54.340Z,652.50
2022-09-12T10:39:54.325Z,646.88
2022-09-12T10:40:54.256Z,658.12
2022-09-12T10:41:54.202Z,669.38
2022-09-12T10:42:54.136Z,669.38
2022-09-12T10:43:54.283Z,652.50
2022-09-12T10:44:54.245Z,652.50
2022-09-12T10:45:54.283Z,663.75
2022-09-12T10:46:54.351Z,675.00
2022-09-12T10:47:54.198Z,703.12
2022-09-12T10:48:54.068Z,748.12
2022-09-12T10:49:54.256Z,793.12
2022-09-12T10:50:54.153Z,849.38
2022-09-12T10:51:54.106Z,855.00
2022-09-12T10:52:54.269Z,832.50
2022-09-12T10:53:54.001Z,838.12
2022-09-12T10:54:54.192Z,849.38
2022-09-12T10:55:54.165Z,855.00
2022-09-12T10:56:54.167Z,843.75
2022-09-12T10:57:53.999Z,838.12
2022-09-12T10:58:54.159Z,798.75
2022-09-12T10:59:54.187Z,793.12
2022-09-12T11:00:54.106Z,793.12
2022-09-12T11:01:54.179Z,826.88
2022-09-12T11:02:54.354Z,849.38
2022-09-12T11:03:54.300Z,855.00
2022-09-12T11:04:54.160Z,843.75
2022-09-12T11:05:54.048Z,843.75
2022-09-12T11:06:54.019Z,860.62
2022-09-12T11:07:53.982Z,894.38
2022-09-12T11:08:54.382Z,916.88
2022-09-12T11:09:54.309Z,916.88
2022-09-12T11:10:54.101Z,900.00
2022-09-12T11:11:54.139Z,871.88
2022-09-12T11:12:54.134Z,849.38
2022-09-12T11:13:54.051Z,821.25
2022-09-12T11:14:54.071Z,804.38
2022-09-12T11:15:54.060Z,776.25
2022-09-12T11:16:54.195Z,759.38
2022-09-12T11:17:53.805Z,736.88
2022-09-12T11:18:54.104Z,725.62
2022-09-12T11:19:53.850Z,725.62
2022-09-12T11:20:53.933Z,736.88
2022-09-12T11:21:54.075Z,759.38
2022-09-12T11:22:54.054Z,781.88
2022-09-12T11:23:54.124Z,804.38
2022-09-12T11:24:53.785Z,826.88
2022-09-12T11:25:53.686Z,838.12
2022-09-12T11:26:53.896Z,843.75
2022-09-12T11:27:53.932Z,849.38
2022-09-12T11:28:53.928Z,866.25
2022-09-12T11:29:54.033Z,855.00
2022-09-12T11:30:53.744Z,832.50
2022-09-12T11:31:53.702Z,810.00
2022-09-12T11:32:53.925Z,798.75
2022-09-12T11:33:56.806Z,804.38
2022-09-12T11:34:53.807Z,810.00
2022-09-12T11:35:55.607Z,815.62
2022-09-12T11:36:53.924Z,815.62
2022-09-12T11:37:53.739Z,821.25
2022-09-12T11:38:53.757Z,838.12
2022-09-12T11:39:55.833Z,849.38
2022-09-12T11:40:53.685Z,877.50
2022-09-12T11:41:53.802Z,894.38
2022-09-12T11:42:53.802Z,922.50
2022-09-12T11:43:53.836Z,945.00
2022-09-12T11:44:53.900Z,967.50
2022-09-12T11:45:54.163Z,990.00
2022-09-12T11:46:53.892Z,1001.25
2022-09-12T11:47:53.695Z,1012.50
2022-09-12T11:48:53.542Z,1012.50
2022-09-12T11:49:53.837Z,1001.25
2022-09-12T11:50:53.645Z,978.75
2022-09-12T11:51:53.944Z,956.25
2022-09-12T11:52:53.727Z,922.50
2022-09-12T11:53:53.646Z,883.12
2022-09-12T11:54:54.133Z,843.75
2022-09-12T11:55:53.308Z,804.38
2022-09-12T11:56:53.566Z,810.00
2022-09-12T11:57:53.671Z,787.50
2022-09-12T11:58:54.204Z,793.12
2022-09-12T11:59:53.546Z,832.50
2022-09-12T12:00:53.506Z,877.50
2022-09-12T12:01:53.523Z,939.38
2022-09-12T12:02:54.330Z,1001.25
2022-09-12T12:03:54.225Z,1029.38
2022-09-12T12:04:53.560Z,1113.75
2022-09-12T12:05:53.619Z,1108.12
2022-09-12T12:06:54.557Z,1113.75
2022-09-12T12:07:53.364Z,1108.12
2022-09-12T12:08:53.365Z,1102.50
2022-09-12T12:09:53.468Z,1108.12
2022-09-12T12:10:53.389Z,1074.38
2022-09-12T12:11:53.647Z,1051.88
2022-09-12T12:12:53.273Z,1006.88
2022-09-12T12:13:53.184Z,1001.25
2022-09-12T12:14:53.306Z,973.12
2022-09-12T12:15:53.750Z,1012.50
2022-09-12T12:16:53.284Z,1006.88
2022-09-12T12:17:53.289Z,1012.50
2022-09-12T12:18:53.308Z,984.38
2022-09-12T12:19:54.026Z,911.25
2022-09-12T12:20:53.404Z,798.75
2022-09-12T12:21:53.361Z,753.75
2022-09-12T12:22:53.021Z,742.50
2022-09-12T12:23:53.042Z,742.50
2022-09-12T12:24:53.043Z,753.75
2022-09-12T12:25:53.065Z,748.12
2022-09-12T12:26:53.775Z,753.75
2022-09-12T12:27:52.999Z,781.88
2022-09-12T12:28:59.052Z,793.12
2022-09-12T12:29:53.234Z,821.25
2022-09-12T12:30:53.014Z,860.62
2022-09-12T12:31:52.907Z,905.62
2022-09-12T12:32:52.895Z,1130.62
2022-09-12T12:33:52.968Z,1957.50
2022-09-12T12:34:52.878Z,2176.88
2022-09-12T12:35:52.886Z,2221.88
2022-09-12T12:36:52.844Z,2143.12
2022-09-12T12:37:52.845Z,2340.00
2022-09-12T12:38:52.830Z,2210.62
2022-09-12T12:39:52.959Z,2435.62
2022-09-12T12:40:52.832Z,2520.00
2022-09-12T12:41:52.789Z,2379.38
2022-09-12T12:42:52.775Z,2289.38
2022-09-12T12:43:52.773Z,2227.50
2022-09-12T12:44:52.756Z,2373.75
2022-09-12T12:45:52.874Z,2047.50
2022-09-12T12:46:52.777Z,1946.25